createdAt,value
2023-01-25T00:01:09.454Z,1.09
2023-01-25T00:03:38.507Z,1.08
2023-01-25T00:06:09.561Z,1.06
2023-01-25T00:08:42.629Z,1.07
2023-01-25T00:11:11.859Z,1.04
2023-01-25T00:13:40.711Z,1.00
2023-01-25T00:16:09.953Z,0.99
2023-01-25T00:18:38.617Z,1.01
2023-01-25T00:21:13.955Z,1.00
2023-01-25T00:23:43.656Z,0.98
2023-01-25T00:26:12.658Z,0.97
2023-01-25T00:28:41.991Z,1.01
2023-01-25T00:31:12.287Z,1.03
2023-01-25T00:33:49.714Z,1.03
2023-01-25T00:36:37.037Z,1.03
2023-01-25T00:39:06.231Z,1.02
2023-01-25T00:41:36.605Z,1.06
2023-01-25T00:44:06.179Z,1.08
2023-01-25T00:46:35.392Z,1.09
2023-01-25T00:49:07.926Z,1.10
2023-01-25T00:51:36.616Z,1.11
2023-01-25T00:54:05.705Z,1.15
2023-01-25T00:56:35.169Z,1.13
2023-01-25T00:59:04.161Z,1.13
2023-01-25T01:01:35.534Z,1.17
2023-01-25T01:04:06.688Z,1.17
2023-01-25T01:06:37.873Z,1.13
2023-01-25T05:10:46.709Z,-0.04
2023-01-25T05:13:44.177Z,0.09
2023-01-25T05:16:28.160Z,0.11
2023-01-25T05:18:58.331Z,0.16
2023-01-25T05:21:58.171Z,0.18
2023-01-25T05:24:31.014Z,0.21
2023-01-25T05:27:04.014Z,0.25
2023-01-25T05:30:01.531Z,0.30
2023-01-25T05:33:00.075Z,0.33
2023-01-25T05:35:28.924Z,0.32
2023-01-25T05:37:58.608Z,0.32
2023-01-25T05:40:27.076Z,0.34
2023-01-25T05:43:00.096Z,0.37
2023-01-25T05:45:30.348Z,0.40
2023-01-25T05:47:59.071Z,0.41
2023-01-25T05:50:27.695Z,0.41
2023-01-25T05:53:01.824Z,0.39
2023-01-25T05:55:31.332Z,0.38
2023-01-25T05:58:03.938Z,0.36
2023-01-25T06:00:33.057Z,0.36
2023-01-25T06:03:03.065Z,0.40
2023-01-25T06:05:35.297Z,0.45
2023-01-25T06:08:04.242Z,0.49
2023-01-25T06:10:45.375Z,0.52
2023-01-25T06:13:16.296Z,0.51
2023-01-25T06:15:55.803Z,0.49
2023-01-25T06:18:44.094Z,0.54
2023-01-25T06:21:42.008Z,0.56
2023-01-25T06:24:10.445Z,0.59
2023-01-25T06:26:40.086Z,0.61
2023-01-25T06:29:09.922Z,0.63
2023-01-25T06:31:38.687Z,0.66
2023-01-25T06:34:08.307Z,0.73
2023-01-25T06:36:37.569Z,0.82
2023-01-25T06:39:06.991Z,0.86
2023-01-25T06:41:40.047Z,0.91
2023-01-25T06:44:10.307Z,0.96
2023-01-25T06:46:41.128Z,0.95
2023-01-25T06:49:12.880Z,0.95
2023-01-25T06:51:41.552Z,0.99
2023-01-25T06:54:11.437Z,1.03
2023-01-25T06:56:45.717Z,1.05
2023-01-25T06:59:17.152Z,1.09
2023-01-25T07:01:46.147Z,1.15
2023-01-25T07:04:15.748Z,1.20
2023-01-25T07:06:44.752Z,1.25
2023-01-25T07:09:15.687Z,1.30
2023-01-25T07:11:48.285Z,1.37
2023-01-25T07:14:17.599Z,1.43
2023-01-25T07:16:46.555Z,1.41
2023-01-25T07:19:18.418Z,1.39
2023-01-25T07:22:05.560Z,1.41
2023-01-25T07:24:50.385Z,1.39
2023-01-25T07:27:20.753Z,1.38
2023-01-25T07:29:49.442Z,1.37
2023-01-25T07:32:18.304Z,1.32
2023-01-25T07:34:47.084Z,1.34
2023-01-25T07:37:16.128Z,1.39
2023-01-25T07:39:49.996Z,1.44
2023-01-25T07:42:19.867Z,1.49
2023-01-25T07:45:10.632Z,1.54
2023-01-25T07:47:39.796Z,1.56
2023-01-25T07:50:11.217Z,1.54
2023-01-25T07:52:42.181Z,1.59
2023-01-25T07:55:12.122Z,1.67
2023-01-25T07:57:42.269Z,1.72
2023-01-25T08:00:13.305Z,1.75
2023-01-25T08:02:42.436Z,1.84
2023-01-25T08:05:12.092Z,1.92
2023-01-25T08:07:42.771Z,2.08
2023-01-25T08:10:13.094Z,2.18
2023-01-25T08:12:47.722Z,2.23
2023-01-25T08:15:16.698Z,2.29
2023-01-25T08:17:46.700Z,2.38
2023-01-25T08:20:17.153Z,2.44
2023-01-25T08:22:46.146Z,2.41
2023-01-25T08:25:15.940Z,2.43
2023-01-25T08:27:45.706Z,2.50
2023-01-25T08:30:15.006Z,2.56
2023-01-25T08:32:44.747Z,2.61
2023-01-25T08:35:36.241Z,2.66
2023-01-25T08:38:07.997Z,2.68
2023-01-25T08:40:38.812Z,2.65
2023-01-25T08:43:11.143Z,2.60
2023-01-25T08:45:59.838Z,2.59
2023-01-25T08:48:28.738Z,2.60
2023-01-25T08:50:59.678Z,2.60
2023-01-25T08:53:29.554Z,2.64
2023-01-25T08:56:04.134Z,2.72
2023-01-25T08:58:36.552Z,2.83
2023-01-25T09:01:07.200Z,2.90
2023-01-25T09:03:59.705Z,2.91
2023-01-25T09:06:34.261Z,2.98
2023-01-25T09:09:04.955Z,3.06
2023-01-25T09:11:37.496Z,3.18
2023-01-25T09:14:06.371Z,3.34
2023-01-25T09:16:35.339Z,3.51
2023-01-25T09:19:04.264Z,3.68
2023-01-25T09:21:37.633Z,3.88
2023-01-25T09:24:07.735Z,4.06
2023-01-25T09:26:39.976Z,4.22
2023-01-25T09:29:11.051Z,4.43
2023-01-25T09:31:44.173Z,4.79
2023-01-25T09:34:14.652Z,5.28
2023-01-25T09:36:43.457Z,5.85
2023-01-25T09:39:12.562Z,6.39
2023-01-25T09:41:44.725Z,6.89
2023-01-25T09:44:35.349Z,7.38
2023-01-25T09:47:10.682Z,7.97
2023-01-25T09:49:42.931Z,8.42
2023-01-25T09:52:41.591Z,8.77
2023-01-25T09:55:14.261Z,9.24
2023-01-25T09:57:43.189Z,9.69
2023-01-25T10:00:16.156Z,10.05
2023-01-25T10:02:58.878Z,10.27
2023-01-25T14:12:42.043Z,4.95
2023-01-25T14:15:18.074Z,4.73
2023-01-25T14:17:46.796Z,4.44
2023-01-25T14:20:20.591Z,4.20
2023-01-25T14:22:50.665Z,3.98
2023-01-25T14:25:20.905Z,3.78
2023-01-25T14:27:56.743Z,3.60
2023-01-25T14:30:26.845Z,3.50
2023-01-25T14:33:15.970Z,3.44
2023-01-25T14:36:11.676Z,3.37
2023-01-25T14:38:42.323Z,3.32
2023-01-25T14:41:14.639Z,3.25
2023-01-25T14:43:45.752Z,3.17
2023-01-25T14:46:22.629Z,3.06
2023-01-25T14:48:53.009Z,2.99
2023-01-25T14:51:30.556Z,2.96
2023-01-25T14:54:07.698Z,2.91
2023-01-25T14:56:43.417Z,2.86
2023-01-25T14:59:20.631Z,2.78
2023-01-25T15:01:50.970Z,2.67
2023-01-25T15:04:19.581Z,2.55
2023-01-25T15:06:52.619Z,2.50
2023-01-25T15:09:37.915Z,2.49
2023-01-25T15:12:28.587Z,2.46
2023-01-25T15:14:58.588Z,2.34
2023-01-25T15:17:45.896Z,2.26
2023-01-25T15:20:31.161Z,2.22
2023-01-25T15:23:10.466Z,2.16
2023-01-25T15:26:04.062Z,2.11
2023-01-25T15:28:37.870Z,2.09
2023-01-25T15:31:06.884Z,2.05
2023-01-25T15:33:44.578Z,2.00
2023-01-25T15:36:39.303Z,1.92
2023-01-25T15:39:15.834Z,1.92
2023-01-25T15:41:47.909Z,1.90
2023-01-25T15:44:20.269Z,1.86
2023-01-25T15:46:50.089Z,1.86
2023-01-25T15:49:31.277Z,1.83
2023-01-25T15:52:10.845Z,1.82
2023-01-25T15:54:55.987Z,1.79
2023-01-25T15:57:38.186Z,1.76
2023-01-25T16:00:18.843Z,1.72
2023-01-25T16:02:52.143Z,1.69
2023-01-25T16:05:23.469Z,1.68
2023-01-25T16:07:53.642Z,1.67
2023-01-25T16:10:26.455Z,1.66
2023-01-25T16:12:55.680Z,1.67
2023-01-25T16:15:24.515Z,1.64
2023-01-25T16:17:53.495Z,1.66
2023-01-25T16:20:22.390Z,1.70
2023-01-25T16:22:51.681Z,1.70
2023-01-25T16:25:20.507Z,1.70
2023-01-25T16:27:50.010Z,1.68
2023-01-25T16:30:24.155Z,1.64
2023-01-25T16:32:53.985Z,1.65
2023-01-25T16:35:23.373Z,1.66
2023-01-25T16:37:52.118Z,1.65
2023-01-25T16:40:32.124Z,1.69
2023-01-25T16:43:01.463Z,1.76
2023-01-25T16:45:32.632Z,1.83
2023-01-25T16:48:02.201Z,1.88
2023-01-25T16:50:31.024Z,1.95
2023-01-25T16:53:19.864Z,2.03
2023-01-25T16:55:49.742Z,2.07
2023-01-25T16:58:18.453Z,2.09
2023-01-25T17:00:48.593Z,2.07
2023-01-25T17:03:17.341Z,2.02
2023-01-25T17:05:46.958Z,2.01
2023-01-25T17:08:16.801Z,2.03
2023-01-25T17:10:45.683Z,2.07
2023-01-25T17:13:14.981Z,2.08
2023-01-25T17:15:44.358Z,2.10
2023-01-25T17:18:13.698Z,2.13
2023-01-25T17:20:43.725Z,2.17
2023-01-25T17:23:12.764Z,2.18
2023-01-25T17:25:41.962Z,2.14
2023-01-25T17:28:11.005Z,2.11
2023-01-25T17:30:41.298Z,2.09
2023-01-25T17:33:13.009Z,2.06
2023-01-25T17:35:42.123Z,2.01
2023-01-25T17:38:10.847Z,1.94
2023-01-25T17:40:40.334Z,1.86
2023-01-25T17:43:09.185Z,1.82
2023-01-25T17:45:40.903Z,1.79
2023-01-25T17:48:11.727Z,1.76
2023-01-25T17:50:40.735Z,1.74
2023-01-25T17:53:12.727Z,1.72
2023-01-25T17:55:45.680Z,1.68
2023-01-25T17:58:15.870Z,1.64
2023-01-25T18:00:45.420Z,1.60
2023-01-25T18:03:14.852Z,1.54
2023-01-25T18:05:46.124Z,1.46
2023-01-25T18:08:26.152Z,1.37
2023-01-25T18:11:01.947Z,1.31
2023-01-25T18:13:32.463Z,1.25
2023-01-25T18:16:06.358Z,1.22
2023-01-25T18:18:36.722Z,1.20
2023-01-25T18:21:12.542Z,1.18
2023-01-25T18:23:47.998Z,1.14
2023-01-25T18:26:25.903Z,1.11
2023-01-25T18:28:59.471Z,1.06
2023-01-25T18:31:28.566Z,1.01
2023-01-25T18:33:58.543Z,0.98
2023-01-25T18:36:27.707Z,0.95
2023-01-25T18:38:58.800Z,0.91
2023-01-25T18:41:32.715Z,0.87
2023-01-25T18:44:02.577Z,0.86
2023-01-25T18:46:32.852Z,0.87
2023-01-25T18:49:03.230Z,0.85
2023-01-25T18:51:59.523Z,0.83
2023-01-25T18:54:46.089Z,0.80
2023-01-25T18:57:23.796Z,0.81
2023-01-25T19:00:09.151Z,0.80
2023-01-25T22:38:03.017Z,-1.07
2023-01-25T22:40:30.884Z,-0.96
2023-01-25T22:42:59.507Z,-0.96
2023-01-25T22:45:27.025Z,-0.94
2023-01-25T22:47:54.584Z,-0.93
2023-01-25T22:50:22.044Z,-0.91
2023-01-25T22:52:49.502Z,-0.91
2023-01-25T22:55:17.156Z,-0.87
2023-01-25T22:57:44.820Z,-0.86
2023-01-25T23:00:13.459Z,-0.84
2023-01-25T23:02:41.781Z,-0.80
2023-01-25T23:05:09.575Z,-0.78
2023-01-25T23:07:37.204Z,-0.75
2023-01-25T23:10:05.793Z,-0.73
2023-01-25T23:12:33.560Z,-0.71
2023-01-25T23:15:02.242Z,-0.68
2023-01-25T23:17:49.054Z,-0.67
2023-01-25T23:20:17.331Z,-0.67
2023-01-25T23:22:44.986Z,-0.68
2023-01-25T23:25:12.296Z,-0.69
2023-01-25T23:27:39.920Z,-0.70
2023-01-25T23:30:09.136Z,-0.71
2023-01-25T23:32:36.900Z,-0.72
2023-01-25T23:35:06.104Z,-0.71
2023-01-25T23:37:33.761Z,-0.70
2023-01-25T23:40:01.510Z,-0.66
2023-01-25T23:42:29.551Z,-0.63
2023-01-25T23:44:57.422Z,-0.62
2023-01-25T23:47:25.589Z,-0.60
2023-01-25T23:49:53.149Z,-0.58
2023-01-25T23:52:20.714Z,-0.58
2023-01-25T23:54:48.309Z,-0.56
2023-01-25T23:57:16.392Z,-0.52
2023-01-25T23:59:44.006Z,-0.50
